Terminal Aerodrome Forecast
Issued by NWS

Home | Current Version | Previous Version | Text Only | Print | Product List | Glossary On
Versions: 1 2 3 4 5 6 7 8 9 10 11 12
000
FTUS44 KCRP 061738
TAFLRD
TAF
KLRD 061738Z 0618/0718 16018G25KT P6SM SCT040 BKN100
     FM070400 13015KT P6SM SCT060
     FM071000 14010KT P6SM BKN015
     FM071500 16015G25KT P6SM SCT035=

USA.gov is the U.S. government's official web portal to all federal, state and local government web resources and services.